createdAt,value
2022-08-05T00:02:27.512Z,39.55
2022-08-05T00:04:56.168Z,39.53
2022-08-05T00:07:59.643Z,39.70
2022-08-05T00:10:10.252Z,39.69
2022-08-05T00:15:57.667Z,39.34
2022-08-05T00:18:05.099Z,39.63
2022-08-05T00:20:31.640Z,39.52
2022-08-05T00:23:02.482Z,39.32
2022-08-05T00:25:46.029Z,39.54
2022-08-05T00:28:13.423Z,39.41
2022-08-05T00:30:41.083Z,39.34
2022-08-05T00:34:41.985Z,39.21
2022-08-05T00:36:15.132Z,39.34
2022-08-05T00:38:44.258Z,39.61
2022-08-05T00:41:11.926Z,39.50
2022-08-05T00:43:47.192Z,39.53
2022-08-05T00:46:16.217Z,39.25
2022-08-05T00:48:50.657Z,39.35
2022-08-05T00:51:50.433Z,39.30
2022-08-05T00:54:06.172Z,39.51
2022-08-05T00:56:32.915Z,39.22
2022-08-05T00:59:00.244Z,39.63
2022-08-05T01:01:48.303Z,39.45
2022-08-05T01:04:15.825Z,39.45
2022-08-05T01:06:46.746Z,39.30
2022-08-05T01:09:17.274Z,39.32
2022-08-05T01:11:49.652Z,39.35
2022-08-05T01:14:41.805Z,39.38
2022-08-05T01:21:01.784Z,39.31
2022-08-05T01:23:57.994Z,39.28
2022-08-05T01:26:30.125Z,39.64
2022-08-05T01:29:14.101Z,39.49
2022-08-05T01:31:51.544Z,39.58
2022-08-05T01:34:27.980Z,39.45
2022-08-05T01:37:02.818Z,39.35
2022-08-05T01:39:46.750Z,39.52
2022-08-05T01:42:17.270Z,39.73
2022-08-05T01:44:54.386Z,39.45
2022-08-05T01:47:24.356Z,39.57
2022-08-05T01:50:08.456Z,39.71
2022-08-05T01:52:44.089Z,39.46
2022-08-05T01:55:14.690Z,39.62
2022-08-05T01:58:11.868Z,39.52
2022-08-05T02:00:34.743Z,39.62
2022-08-05T02:03:24.350Z,39.66
2022-08-05T02:05:59.800Z,39.72
2022-08-05T02:08:30.755Z,39.71
2022-08-05T02:11:11.966Z,39.67
2022-08-05T02:13:53.362Z,39.59
2022-08-05T02:16:38.901Z,39.81
2022-08-05T02:19:34.176Z,39.52
2022-08-05T02:22:25.512Z,39.74
2022-08-05T02:24:55.811Z,39.54
2022-08-05T02:27:29.996Z,39.55
2022-08-05T02:30:12.492Z,39.64
2022-08-05T02:32:42.484Z,39.56
2022-08-05T02:35:14.527Z,39.56
2022-08-05T02:37:53.833Z,39.58
2022-08-05T02:40:22.999Z,39.70
2022-08-05T02:42:54.028Z,39.74
2022-08-05T02:45:23.849Z,39.74
2022-08-05T02:48:06.505Z,39.82
2022-08-05T02:50:38.210Z,39.84
2022-08-05T02:53:11.753Z,39.50
2022-08-05T02:55:52.089Z,39.53
2022-08-05T02:58:23.198Z,39.56
2022-08-05T03:00:56.607Z,39.78
2022-08-05T03:03:23.844Z,39.61
2022-08-05T03:06:56.736Z,39.79
2022-08-05T03:08:42.543Z,39.60
2022-08-05T03:11:54.512Z,39.66
2022-08-05T03:14:13.827Z,39.78
2022-08-05T03:16:41.445Z,39.74
2022-08-05T03:19:16.987Z,39.65
2022-08-05T03:21:49.329Z,39.74
2022-08-05T03:24:29.550Z,39.63
2022-08-05T03:26:57.368Z,39.67
2022-08-05T03:29:24.268Z,39.45
2022-08-05T03:32:11.542Z,39.87
2022-08-05T03:34:38.525Z,39.99
2022-08-05T03:37:06.874Z,39.67
2022-08-05T03:39:38.059Z,39.70
2022-08-05T03:42:13.856Z,39.81
2022-08-05T03:44:42.548Z,39.87
2022-08-05T03:47:09.081Z,39.66
2022-08-05T03:49:51.526Z,39.93
2022-08-05T03:52:50.074Z,39.95
2022-08-05T03:56:04.749Z,39.65
2022-08-05T03:58:04.230Z,39.87
2022-08-05T04:00:32.420Z,39.89
2022-08-05T04:03:02.932Z,39.84
2022-08-05T04:05:34.646Z,39.65
2022-08-05T04:08:29.928Z,39.71
2022-08-05T04:10:53.468Z,39.68
2022-08-05T04:13:21.801Z,39.69
2022-08-05T04:15:52.799Z,39.74
2022-08-05T04:18:32.198Z,40.17
2022-08-05T04:21:01.893Z,40.04
2022-08-05T04:24:05.184Z,39.99
2022-08-05T04:26:17.556Z,39.86
2022-08-05T04:28:50.776Z,39.83
2022-08-05T04:31:18.310Z,39.83
2022-08-05T04:33:54.438Z,39.61
2022-08-05T04:36:46.610Z,39.74
2022-08-05T04:39:18.203Z,39.80
2022-08-05T04:41:45.700Z,39.81
2022-08-05T04:44:12.693Z,39.70
2022-08-05T04:46:39.234Z,39.62
2022-08-05T04:49:12.201Z,39.74
2022-08-05T04:51:41.204Z,39.94
2022-08-05T04:54:09.743Z,39.83
2022-08-05T04:56:36.865Z,39.79
2022-08-05T04:59:21.807Z,39.84
2022-08-05T05:02:07.177Z,39.92
2022-08-05T05:04:38.732Z,39.97
2022-08-05T05:07:15.928Z,39.81
2022-08-05T05:09:44.483Z,39.96
2022-08-05T05:12:11.549Z,39.98
2022-08-05T05:14:38.379Z,40.06
2022-08-05T05:17:22.769Z,40.09
2022-08-05T05:19:53.342Z,40.09
2022-08-05T05:22:24.283Z,40.13
2022-08-05T05:24:59.790Z,40.09
2022-08-05T05:27:45.716Z,40.11
2022-08-05T05:30:29.203Z,40.13
2022-08-05T05:33:00.066Z,40.27
2022-08-05T05:35:29.150Z,40.01
2022-08-05T05:38:09.126Z,40.07
2022-08-05T05:40:42.411Z,40.11
2022-08-05T05:43:11.832Z,40.04
2022-08-05T05:45:48.101Z,39.96
2022-08-05T05:48:16.155Z,40.27
2022-08-05T05:50:44.508Z,40.36
2022-08-05T05:53:22.138Z,40.17
2022-08-05T05:55:52.428Z,40.32
2022-08-05T05:58:31.639Z,40.32
2022-08-05T06:01:02.473Z,40.31
2022-08-05T06:04:00.732Z,40.35
2022-08-05T06:06:33.045Z,40.38
2022-08-05T06:09:07.528Z,40.27
2022-08-05T06:11:34.573Z,40.47
2022-08-05T06:14:02.189Z,40.46
2022-08-05T06:16:32.731Z,40.39
2022-08-05T06:19:02.052Z,40.40
2022-08-05T06:21:35.865Z,40.45
2022-08-05T06:24:07.798Z,40.21
2022-08-05T06:29:25.329Z,40.21
2022-08-05T06:34:53.543Z,40.02
2022-08-05T06:37:23.461Z,39.96
2022-08-05T06:40:10.636Z,39.90
2022-08-05T06:42:39.865Z,39.70
2022-08-05T06:45:08.455Z,39.62
2022-08-05T06:48:36.778Z,39.69
2022-08-05T06:50:23.067Z,39.58
2022-08-05T06:52:58.987Z,39.67
2022-08-05T06:55:31.384Z,39.56
2022-08-05T06:58:30.067Z,39.58
2022-08-05T07:00:50.819Z,39.34
2022-08-05T07:03:17.523Z,39.04
2022-08-05T07:05:46.458Z,39.31
2022-08-05T07:08:13.533Z,39.27
2022-08-05T07:10:52.280Z,39.24
2022-08-05T07:13:57.611Z,38.99
2022-08-05T07:17:59.113Z,38.96
2022-08-05T07:25:54.378Z,38.44
2022-08-05T07:28:09.709Z,38.09
2022-08-05T07:30:39.867Z,38.20
2022-08-05T07:33:16.204Z,37.76
2022-08-05T07:36:04.593Z,37.47
2022-08-05T07:38:43.561Z,37.38
2022-08-05T07:42:06.798Z,37.20
2022-08-05T07:44:04.344Z,37.40
2022-08-05T07:49:18.260Z,37.31
2022-08-05T07:51:53.269Z,37.28
2022-08-05T07:54:31.147Z,37.25
2022-08-05T07:57:17.627Z,37.27
2022-08-05T07:59:51.481Z,37.47
2022-08-05T08:04:59.211Z,37.60
2022-08-05T08:07:28.499Z,37.37
2022-08-05T08:09:55.424Z,37.23
2022-08-05T08:12:37.172Z,37.12
2022-08-05T08:15:15.364Z,37.40
2022-08-05T08:17:46.148Z,37.40
2022-08-05T08:20:44.014Z,37.57
2022-08-05T08:23:07.604Z,37.39
2022-08-05T08:25:59.830Z,37.73
2022-08-05T08:28:35.811Z,37.47
2022-08-05T08:31:04.434Z,37.61
2022-08-05T08:33:38.189Z,37.47
2022-08-05T08:36:29.788Z,37.75
2022-08-05T08:38:57.014Z,37.85
2022-08-05T08:41:51.255Z,37.96
2022-08-05T08:45:16.625Z,37.67
2022-08-05T08:47:47.149Z,37.68
2022-08-05T08:50:22.323Z,37.65
2022-08-05T08:52:47.390Z,37.52
2022-08-05T08:55:32.096Z,37.36
2022-08-05T08:58:06.826Z,37.22
2022-08-05T09:00:35.862Z,36.92
2022-08-05T09:03:05.650Z,36.95
2022-08-05T09:05:38.282Z,36.81
2022-08-05T09:08:19.996Z,36.79
2022-08-05T09:10:53.476Z,36.76
2022-08-05T09:13:20.235Z,36.75
2022-08-05T09:15:51.048Z,36.75
2022-08-05T09:18:17.938Z,36.79
2022-08-05T09:20:45.875Z,37.07
2022-08-05T09:23:19.902Z,37.00
2022-08-05T09:26:01.374Z,37.42
2022-08-05T09:28:33.405Z,37.14
2022-08-05T09:31:18.143Z,37.33
2022-08-05T09:33:59.124Z,37.74
2022-08-05T09:36:45.758Z,38.83
2022-08-05T09:39:23.520Z,40.53
2022-08-05T09:41:59.796Z,41.96
2022-08-05T09:44:42.310Z,41.79
2022-08-05T09:47:15.567Z,41.92
2022-08-05T09:52:44.908Z,42.25
2022-08-05T09:55:56.198Z,41.89
2022-08-05T09:58:00.039Z,41.69
2022-08-05T10:00:27.847Z,41.82
2022-08-05T10:02:58.072Z,41.96
2022-08-05T10:05:28.155Z,41.57
2022-08-05T10:08:35.703Z,41.81
2022-08-05T10:10:50.487Z,41.79
2022-08-05T10:13:26.843Z,41.78
2022-08-05T10:16:00.626Z,41.88
2022-08-05T10:18:31.943Z,41.83
2022-08-05T10:21:06.324Z,41.79
2022-08-05T10:23:59.824Z,41.55
2022-08-05T10:26:32.368Z,41.30
2022-08-05T10:28:59.724Z,41.52
2022-08-05T10:32:54.589Z,40.95
2022-08-05T10:34:13.764Z,41.10
2022-08-05T10:36:42.063Z,40.58
2022-08-05T10:39:24.824Z,40.32
2022-08-05T10:42:13.461Z,40.12
2022-08-05T10:44:45.208Z,39.96
2022-08-05T10:47:26.219Z,39.85
2022-08-05T10:50:20.526Z,39.57
2022-08-05T10:53:01.012Z,39.41
2022-08-05T10:55:28.592Z,39.60
2022-08-05T10:58:08.564Z,39.18
2022-08-05T11:00:35.630Z,39.05
2022-08-05T11:03:23.171Z,38.90
2022-08-05T11:06:15.532Z,38.83
2022-08-05T11:09:39.117Z,38.63
2022-08-05T11:12:24.383Z,38.52
2022-08-05T11:15:19.353Z,38.53
2022-08-05T11:17:57.318Z,38.26
2022-08-05T11:20:47.509Z,38.39
2022-08-05T11:24:02.722Z,38.30
2022-08-05T11:26:29.288Z,38.10
2022-08-05T11:29:11.450Z,38.12
2022-08-05T11:31:57.454Z,38.20
2022-08-05T11:34:37.774Z,38.19
2022-08-05T11:38:14.314Z,38.04
2022-08-05T11:39:55.408Z,38.33
2022-08-05T11:42:28.478Z,38.14
2022-08-05T11:45:03.495Z,38.03
2022-08-05T11:47:49.582Z,38.23
2022-08-05T11:50:17.763Z,38.09
2022-08-05T11:52:48.823Z,38.09
2022-08-05T11:55:16.202Z,38.03
2022-08-05T12:00:31.317Z,37.94
2022-08-05T12:02:58.001Z,37.92
2022-08-05T12:05:32.201Z,37.96
2022-08-05T12:08:10.331Z,37.99
2022-08-05T12:10:45.187Z,37.78
2022-08-05T12:13:27.899Z,37.83
2022-08-05T12:16:14.203Z,37.69
2022-08-05T12:18:42.741Z,37.63
2022-08-05T12:21:32.232Z,37.78
2022-08-05T12:24:17.177Z,37.56
2022-08-05T12:26:52.941Z,37.53
2022-08-05T12:29:23.004Z,37.45
2022-08-05T12:31:53.944Z,37.45
2022-08-05T12:34:26.671Z,37.37
2022-08-05T12:36:54.662Z,37.40
2022-08-05T12:39:23.506Z,37.26
2022-08-05T12:42:02.149Z,37.35
2022-08-05T12:44:34.058Z,37.33
2022-08-05T12:47:02.059Z,37.23
2022-08-05T12:50:04.530Z,37.22
2022-08-05T12:52:42.233Z,37.07
2022-08-05T12:55:25.066Z,36.91
2022-08-05T12:58:50.215Z,36.81
2022-08-05T13:02:03.552Z,36.75
2022-08-05T13:03:41.371Z,36.77
2022-08-05T13:06:12.467Z,36.69
2022-08-05T13:08:39.988Z,36.63
2022-08-05T13:11:07.894Z,36.58
2022-08-05T13:14:05.133Z,36.52
2022-08-05T13:16:27.728Z,36.55
2022-08-05T13:18:58.639Z,36.65
2022-08-05T13:21:28.595Z,36.59
2022-08-05T13:24:08.757Z,36.35
2022-08-05T13:26:35.823Z,36.35
2022-08-05T13:29:02.435Z,36.23
2022-08-05T13:31:33.826Z,36.22
2022-08-05T13:34:22.109Z,36.30
2022-08-05T13:36:50.505Z,36.45
2022-08-05T13:40:13.197Z,36.35
2022-08-05T13:42:04.276Z,36.40
2022-08-05T13:44:32.694Z,36.33
2022-08-05T13:47:04.930Z,36.05
2022-08-05T13:49:35.703Z,36.27
2022-08-05T13:52:16.679Z,36.30
2022-08-05T13:54:43.215Z,36.36
2022-08-05T13:57:20.845Z,36.38
2022-08-05T13:59:57.235Z,36.39
2022-08-05T14:05:19.616Z,36.32
2022-08-05T14:08:03.287Z,36.36
2022-08-05T14:10:35.550Z,36.39
2022-08-05T14:13:04.163Z,36.40
2022-08-05T14:18:23.935Z,36.17
2022-08-05T14:20:54.389Z,36.29
2022-08-05T14:23:26.416Z,36.12
2022-08-05T14:25:59.127Z,36.26
2022-08-05T14:28:30.155Z,36.22
2022-08-05T14:31:02.772Z,36.09
2022-08-05T14:33:32.469Z,36.15
2022-08-05T14:36:20.630Z,36.10
2022-08-05T14:38:48.205Z,36.30
2022-08-05T14:44:14.447Z,36.14
2022-08-05T14:46:47.369Z,36.21
2022-08-05T14:49:13.887Z,36.16
2022-08-05T14:51:42.428Z,35.93
2022-08-05T14:54:29.881Z,36.12
2022-08-05T14:56:58.465Z,35.93
2022-08-05T14:59:29.717Z,35.83
2022-08-05T15:04:44.969Z,35.88
2022-08-05T15:08:06.390Z,35.90
2022-08-05T15:10:01.592Z,36.02
2022-08-05T15:12:41.036Z,35.86
2022-08-05T15:15:16.915Z,35.83
2022-08-05T15:18:03.699Z,35.95
2022-08-05T15:20:32.368Z,35.74
2022-08-05T15:28:36.189Z,35.72
2022-08-05T15:34:05.507Z,35.73
2022-08-05T15:36:36.644Z,35.48
2022-08-05T15:41:55.410Z,35.68
2022-08-05T15:47:09.983Z,35.57
2022-08-05T15:49:40.886Z,35.24
2022-08-05T15:52:29.622Z,35.35
2022-08-05T15:55:16.230Z,35.21
2022-08-05T15:57:43.699Z,35.34
2022-08-05T16:00:12.313Z,35.14
2022-08-05T16:02:43.457Z,35.07
2022-08-05T16:05:17.658Z,35.05
2022-08-05T16:07:49.212Z,35.24
2022-08-05T16:10:16.376Z,34.99
2022-08-05T16:12:50.545Z,35.19
2022-08-05T16:15:20.133Z,35.12
2022-08-05T16:17:57.556Z,34.91
2022-08-05T16:20:33.382Z,34.85
2022-08-05T16:23:00.923Z,35.05
2022-08-05T16:25:33.797Z,34.75
2022-08-05T16:28:18.203Z,34.94
2022-08-05T16:33:28.541Z,34.75
2022-08-05T16:36:08.261Z,34.47
2022-08-05T16:38:35.405Z,34.45
2022-08-05T16:41:02.632Z,34.60
2022-08-05T16:43:49.113Z,34.56
2022-08-05T16:46:23.659Z,34.50
2022-08-05T16:48:51.480Z,34.29
2022-08-05T16:51:18.830Z,34.33
2022-08-05T16:54:05.770Z,34.20
2022-08-05T16:59:19.004Z,34.17
2022-08-05T17:01:53.057Z,34.41
2022-08-05T17:04:26.992Z,34.20
2022-08-05T17:06:55.427Z,34.04
2022-08-05T17:09:22.942Z,34.10
2022-08-05T17:17:14.952Z,34.10
2022-08-05T17:19:45.544Z,33.80
2022-08-05T17:22:25.480Z,33.98
2022-08-05T17:25:02.206Z,33.82
2022-08-05T17:27:48.841Z,33.92
2022-08-05T17:30:28.275Z,33.75
2022-08-05T17:32:55.639Z,33.74
2022-08-05T17:35:22.291Z,33.51
2022-08-05T17:37:49.042Z,33.47
2022-08-05T17:40:18.712Z,33.81
2022-08-05T17:42:50.899Z,33.35
2022-08-05T17:48:00.895Z,33.36
2022-08-05T17:50:30.484Z,33.72
2022-08-05T17:53:11.628Z,33.28
2022-08-05T17:55:40.133Z,33.40
2022-08-05T17:58:11.125Z,33.26
2022-08-05T18:00:44.970Z,33.54
2022-08-05T18:03:24.125Z,33.30
2022-08-05T18:06:04.590Z,33.37
2022-08-05T18:08:33.550Z,33.42
2022-08-05T18:11:00.592Z,33.04
2022-08-05T18:13:36.415Z,33.00
2022-08-05T18:16:04.129Z,33.01
2022-08-05T18:18:33.750Z,33.10
2022-08-05T18:21:13.361Z,33.11
2022-08-05T18:23:47.265Z,33.21
2022-08-05T18:26:13.883Z,32.98
2022-08-05T18:28:44.774Z,32.98
2022-08-05T18:33:59.583Z,32.99
2022-08-05T18:36:28.214Z,32.80
2022-08-05T18:38:55.318Z,33.14
2022-08-05T18:41:55.077Z,32.93
2022-08-05T18:44:33.307Z,32.90
2022-08-05T18:47:03.816Z,32.64
2022-08-05T18:52:33.565Z,32.79
2022-08-05T18:55:06.180Z,32.79
2022-08-05T18:57:49.908Z,32.75
2022-08-05T19:03:04.274Z,32.83
2022-08-05T19:06:12.764Z,32.33
2022-08-05T19:08:17.567Z,32.42
2022-08-05T19:10:45.548Z,32.42
2022-08-05T19:13:15.907Z,32.47
2022-08-05T19:15:57.443Z,32.40
2022-08-05T19:18:26.992Z,32.37
2022-08-05T19:20:54.309Z,32.49
2022-08-05T19:24:03.604Z,32.51
2022-08-05T19:26:09.534Z,32.36
2022-08-05T19:28:42.197Z,31.99
2022-08-05T19:31:22.991Z,32.27
2022-08-05T19:33:56.305Z,32.06
2022-08-05T19:36:29.277Z,32.17
2022-08-05T19:38:58.874Z,32.14
2022-08-05T19:44:13.479Z,31.69
2022-08-05T19:46:41.086Z,31.87
2022-08-05T19:49:16.458Z,32.14
2022-08-05T19:52:13.079Z,31.75
2022-08-05T19:54:40.540Z,31.81
2022-08-05T20:00:02.098Z,31.84
2022-08-05T20:02:22.211Z,32.00
2022-08-05T20:04:50.820Z,31.96
2022-08-05T20:07:48.050Z,31.80
2022-08-05T20:10:11.442Z,31.61
2022-08-05T20:12:39.852Z,31.81
2022-08-05T20:15:15.890Z,32.19
2022-08-05T20:18:09.665Z,32.02
2022-08-05T20:20:38.044Z,32.17
2022-08-05T20:23:05.415Z,32.21
2022-08-05T20:28:14.545Z,32.25
2022-08-05T20:30:41.362Z,32.37
2022-08-05T20:33:08.735Z,32.48
2022-08-05T20:35:40.661Z,32.20
2022-08-05T20:38:14.451Z,32.20
2022-08-05T20:40:50.526Z,32.64
2022-08-05T20:43:17.554Z,32.20
2022-08-05T20:46:04.241Z,32.30
2022-08-05T20:48:30.861Z,32.45
2022-08-05T20:50:57.396Z,32.54
2022-08-05T20:53:37.068Z,32.38
2022-08-05T20:56:09.698Z,32.26
2022-08-05T20:58:36.935Z,32.28
2022-08-05T21:01:04.563Z,32.12
2022-08-05T21:03:34.743Z,32.43
2022-08-05T21:06:01.870Z,32.34
2022-08-05T21:08:41.684Z,32.41
2022-08-05T21:12:07.703Z,32.43
2022-08-05T21:14:01.534Z,32.34
2022-08-05T21:16:29.849Z,32.48
2022-08-05T21:19:00.154Z,32.39
2022-08-05T21:21:43.901Z,32.31
2022-08-05T21:26:58.683Z,32.12
2022-08-05T21:29:31.922Z,32.28
2022-08-05T21:31:59.536Z,32.20
2022-08-05T21:34:26.057Z,32.17
2022-08-05T21:36:54.973Z,32.13
2022-08-05T21:44:44.813Z,32.15
2022-08-05T21:47:32.885Z,32.31
2022-08-05T21:50:01.280Z,32.24
2022-08-05T21:52:36.168Z,32.45
2022-08-05T21:55:13.834Z,32.38
2022-08-05T21:57:42.613Z,32.33
2022-08-05T22:00:11.752Z,32.30
2022-08-05T22:02:38.958Z,32.31
2022-08-05T22:05:06.088Z,32.22
2022-08-05T22:07:54.199Z,32.46
2022-08-05T22:10:26.757Z,32.26
2022-08-05T22:14:05.862Z,32.35
2022-08-05T22:16:01.097Z,32.49
2022-08-05T22:18:34.443Z,32.39
2022-08-05T22:21:03.981Z,32.26
2022-08-05T22:24:02.299Z,32.22
2022-08-05T22:26:49.757Z,32.22
2022-08-05T22:29:17.446Z,32.43
2022-08-05T22:31:45.737Z,32.25
2022-08-05T22:34:28.199Z,32.33
2022-08-05T22:36:58.425Z,32.59
2022-08-05T22:39:30.977Z,32.41
2022-08-05T22:42:11.767Z,32.48
2022-08-05T22:44:53.475Z,32.27
2022-08-05T22:47:29.285Z,32.43
2022-08-05T22:50:21.041Z,32.42
2022-08-05T22:52:44.613Z,32.39
2022-08-05T22:55:18.944Z,32.35
2022-08-05T22:57:47.196Z,32.52
2022-08-05T23:00:17.757Z,32.54
2022-08-05T23:02:49.089Z,32.38
2022-08-05T23:05:16.565Z,32.51
2022-08-05T23:07:48.262Z,32.37
2022-08-05T23:10:20.174Z,32.48
2022-08-05T23:12:54.361Z,32.55
2022-08-05T23:15:26.982Z,32.73
2022-08-05T23:18:00.944Z,32.52
2022-08-05T23:20:30.311Z,32.47
2022-08-05T23:23:08.068Z,32.61
2022-08-05T23:25:52.294Z,32.63
2022-08-05T23:28:22.052Z,32.53
2022-08-05T23:34:04.060Z,32.60
2022-08-05T23:36:16.339Z,32.56
2022-08-05T23:38:43.505Z,32.50
2022-08-05T23:41:10.591Z,32.50
2022-08-05T23:44:06.379Z,32.77
2022-08-05T23:46:24.215Z,32.60
2022-08-05T23:51:55.214Z,32.72
2022-08-05T23:54:30.284Z,32.67
2022-08-05T23:57:03.409Z,32.77
